sensor_id;sensor_type;location;lat;lon;timestamp;P1;durP1;ratioP1;P2;durP2;ratioP2
70967;SDS011;58629;48.808;8.820;2024-03-23T00:55:50;8.10;;;4.55;;
70967;SDS011;58629;48.808;8.820;2024-03-23T00:58:16;6.80;;;4.23;;
70967;SDS011;58629;48.808;8.820;2024-03-23T01:00:41;7.83;;;4.47;;
70967;SDS011;58629;48.808;8.820;2024-03-23T01:03:06;7.10;;;4.20;;
70967;SDS011;58629;48.808;8.820;2024-03-23T01:05:31;6.10;;;4.00;;
70967;SDS011;58629;48.808;8.820;2024-03-23T01:07:57;5.97;;;3.80;;
70967;SDS011;58629;48.808;8.820;2024-03-23T01:10:22;5.03;;;3.50;;
70967;SDS011;58629;48.808;8.820;2024-03-23T01:12:47;6.43;;;4.18;;
70967;SDS011;58629;48.808;8.820;2024-03-23T01:15:13;6.23;;;3.73;;
70967;SDS011;58629;48.808;8.820;2024-03-23T01:17:38;6.47;;;3.47;;
70967;SDS011;58629;48.808;8.820;2024-03-23T01:20:03;6.60;;;4.10;;
70967;SDS011;58629;48.808;8.820;2024-03-23T01:22:29;7.63;;;4.27;;
70967;SDS011;58629;48.808;8.820;2024-03-23T01:24:54;6.13;;;3.97;;
70967;SDS011;58629;48.808;8.820;2024-03-23T01:27:20;5.87;;;3.80;;
70967;SDS011;58629;48.808;8.820;2024-03-23T01:29:45;6.20;;;3.37;;
70967;SDS011;58629;48.808;8.820;2024-03-23T01:32:10;6.63;;;3.70;;
70967;SDS011;58629;48.808;8.820;2024-03-23T01:34:36;5.47;;;3.83;;
70967;SDS011;58629;48.808;8.820;2024-03-23T01:37:01;5.17;;;3.37;;
70967;SDS011;58629;48.808;8.820;2024-03-23T01:39:26;5.67;;;3.40;;
70967;SDS011;58629;48.808;8.820;2024-03-23T01:41:52;5.50;;;3.80;;
70967;SDS011;58629;48.808;8.820;2024-03-23T01:44:17;5.00;;;3.50;;
70967;SDS011;58629;48.808;8.820;2024-03-23T01:46:43;5.90;;;3.80;;
70967;SDS011;58629;48.808;8.820;2024-03-23T01:49:09;5.55;;;3.60;;
70967;SDS011;58629;48.808;8.820;2024-03-23T01:51:35;5.13;;;3.40;;
70967;SDS011;58629;48.808;8.820;2024-03-23T01:54:02;5.78;;;3.63;;
70967;SDS011;58629;48.808;8.820;2024-03-23T01:56:30;5.50;;;3.60;;
70967;SDS011;58629;48.808;8.820;2024-03-23T01:58:58;5.75;;;3.35;;
70967;SDS011;58629;48.808;8.820;2024-03-23T02:01:24;6.30;;;4.00;;
70967;SDS011;58629;48.808;8.820;2024-03-23T02:03:50;6.32;;;3.63;;
70967;SDS011;58629;48.808;8.820;2024-03-23T02:06:15;5.30;;;3.33;;
70967;SDS011;58629;48.808;8.820;2024-03-23T02:08:40;5.80;;;3.90;;
70967;SDS011;58629;48.808;8.820;2024-03-23T02:11:06;8.07;;;3.60;;
70967;SDS011;58629;48.808;8.820;2024-03-23T02:13:31;5.43;;;3.30;;
70967;SDS011;58629;48.808;8.820;2024-03-23T02:15:57;5.13;;;3.30;;
70967;SDS011;58629;48.808;8.820;2024-03-23T02:18:22;4.07;;;2.90;;
70967;SDS011;58629;48.808;8.820;2024-03-23T02:20:47;4.43;;;2.93;;
70967;SDS011;58629;48.808;8.820;2024-03-23T02:23:16;5.27;;;2.90;;
70967;SDS011;58629;48.808;8.820;2024-03-23T02:25:43;4.53;;;3.00;;
70967;SDS011;58629;48.808;8.820;2024-03-23T02:28:08;4.28;;;2.90;;
70967;SDS011;58629;48.808;8.820;2024-03-23T02:30:34;3.72;;;2.72;;
70967;SDS011;58629;48.808;8.820;2024-03-23T02:32:59;3.60;;;2.43;;
70967;SDS011;58629;48.808;8.820;2024-03-23T02:35:24;5.60;;;2.63;;
70967;SDS011;58629;48.808;8.820;2024-03-23T02:37:50;3.63;;;2.70;;
70967;SDS011;58629;48.808;8.820;2024-03-23T02:40:16;4.70;;;2.70;;
70967;SDS011;58629;48.808;8.820;2024-03-23T02:42:42;3.13;;;2.38;;
70967;SDS011;58629;48.808;8.820;2024-03-23T02:45:07;2.97;;;2.05;;
70967;SDS011;58629;48.808;8.820;2024-03-23T02:47:33;3.47;;;2.20;;
70967;SDS011;58629;48.808;8.820;2024-03-23T02:49:58;3.53;;;2.10;;
70967;SDS011;58629;48.808;8.820;2024-03-23T02:52:24;3.07;;;2.10;;
70967;SDS011;58629;48.808;8.820;2024-03-23T02:54:49;3.90;;;1.90;;
70967;SDS011;58629;48.808;8.820;2024-03-23T02:57:14;2.80;;;2.15;;
70967;SDS011;58629;48.808;8.820;2024-03-23T02:59:40;2.90;;;1.97;;
70967;SDS011;58629;48.808;8.820;2024-03-23T03:02:05;2.80;;;2.00;;
70967;SDS011;58629;48.808;8.820;2024-03-23T03:04:31;2.53;;;1.90;;
70967;SDS011;58629;48.808;8.820;2024-03-23T03:06:57;2.97;;;2.20;;
70967;SDS011;58629;48.808;8.820;2024-03-23T03:09:22;3.57;;;2.00;;
70967;SDS011;58629;48.808;8.820;2024-03-23T03:11:48;3.10;;;2.20;;
70967;SDS011;58629;48.808;8.820;2024-03-23T03:14:13;3.07;;;2.27;;
70967;SDS011;58629;48.808;8.820;2024-03-23T03:16:38;6.13;;;3.10;;
70967;SDS011;58629;48.808;8.820;2024-03-23T03:19:04;4.10;;;3.00;;
70967;SDS011;58629;48.808;8.820;2024-03-23T03:21:29;4.43;;;3.00;;
70967;SDS011;58629;48.808;8.820;2024-03-23T03:23:54;4.67;;;2.80;;
70967;SDS011;58629;48.808;8.820;2024-03-23T03:26:21;4.80;;;2.78;;
70967;SDS011;58629;48.808;8.820;2024-03-23T03:28:47;3.63;;;2.53;;
70967;SDS011;58629;48.808;8.820;2024-03-23T03:31:17;2.80;;;2.20;;
70967;SDS011;58629;48.808;8.820;2024-03-23T03:33:45;3.30;;;2.15;;
70967;SDS011;58629;48.808;8.820;2024-03-23T03:36:11;3.30;;;2.20;;
70967;SDS011;58629;48.808;8.820;2024-03-23T03:38:36;4.43;;;2.20;;
70967;SDS011;58629;48.808;8.820;2024-03-23T03:41:02;3.30;;;2.30;;
70967;SDS011;58629;48.808;8.820;2024-03-23T03:43:27;4.13;;;2.00;;
70967;SDS011;58629;48.808;8.820;2024-03-23T03:45:53;3.60;;;2.27;;
70967;SDS011;58629;48.808;8.820;2024-03-23T03:48:19;3.40;;;2.30;;
70967;SDS011;58629;48.808;8.820;2024-03-23T03:50:45;2.57;;;1.87;;
70967;SDS011;58629;48.808;8.820;2024-03-23T03:53:10;2.73;;;2.07;;
70967;SDS011;58629;48.808;8.820;2024-03-23T03:55:36;4.15;;;2.22;;
70967;SDS011;58629;48.808;8.820;2024-03-23T03:58:01;3.43;;;2.20;;
70967;SDS011;58629;48.808;8.820;2024-03-23T04:00:27;3.10;;;2.00;;
70967;SDS011;58629;48.808;8.820;2024-03-23T04:02:52;3.67;;;1.97;;
70967;SDS011;58629;48.808;8.820;2024-03-23T04:05:17;4.32;;;2.85;;
70967;SDS011;58629;48.808;8.820;2024-03-23T04:07:44;7.03;;;3.28;;
70967;SDS011;58629;48.808;8.820;2024-03-23T04:10:09;9.07;;;4.00;;
70967;SDS011;58629;48.808;8.820;2024-03-23T04:12:35;9.30;;;4.28;;
70967;SDS011;58629;48.808;8.820;2024-03-23T04:15:00;5.03;;;2.97;;
70967;SDS011;58629;48.808;8.820;2024-03-23T04:17:28;11.75;;;5.60;;
70967;SDS011;58629;48.808;8.820;2024-03-23T04:19:56;10.37;;;5.77;;
70967;SDS011;58629;48.808;8.820;2024-03-23T04:22:22;10.70;;;6.95;;
70967;SDS011;58629;48.808;8.820;2024-03-23T04:24:49;13.30;;;7.80;;
70967;SDS011;58629;48.808;8.820;2024-03-23T04:27:15;15.73;;;8.77;;
70967;SDS011;58629;48.808;8.820;2024-03-23T04:29:40;13.33;;;8.50;;
70967;SDS011;58629;48.808;8.820;2024-03-23T04:32:05;14.27;;;8.80;;
70967;SDS011;58629;48.808;8.820;2024-03-23T04:34:31;17.97;;;9.10;;
70967;SDS011;58629;48.808;8.820;2024-03-23T04:36:57;17.10;;;10.25;;
70967;SDS011;58629;48.808;8.820;2024-03-23T04:39:23;21.85;;;11.98;;
70967;SDS011;58629;48.808;8.820;2024-03-23T04:41:49;24.47;;;12.73;;
70967;SDS011;58629;48.808;8.820;2024-03-23T04:44:15;23.33;;;12.80;;
70967;SDS011;58629;48.808;8.820;2024-03-23T04:46:40;23.43;;;12.73;;
70967;SDS011;58629;48.808;8.820;2024-03-23T04:49:05;26.03;;;13.00;;
70967;SDS011;58629;48.808;8.820;2024-03-23T04:51:35;24.37;;;13.10;;
70967;SDS011;58629;48.808;8.820;2024-03-23T04:54:01;21.45;;;12.30;;
70967;SDS011;58629;48.808;8.820;2024-03-23T04:56:27;20.33;;;11.70;;
70967;SDS011;58629;48.808;8.820;2024-03-23T04:58:52;22.47;;;11.57;;
70967;SDS011;58629;48.808;8.820;2024-03-23T05:01:18;20.10;;;11.67;;
70967;SDS011;58629;48.808;8.820;2024-03-23T05:03:43;22.77;;;11.82;;
70967;SDS011;58629;48.808;8.820;2024-03-23T05:06:09;20.40;;;11.90;;
70967;SDS011;58629;48.808;8.820;2024-03-23T05:08:34;20.93;;;11.73;;
70967;SDS011;58629;48.808;8.820;2024-03-23T05:10:59;16.53;;;9.70;;
70967;SDS011;58629;48.808;8.820;2024-03-23T05:13:24;18.47;;;9.77;;
70967;SDS011;58629;48.808;8.820;2024-03-23T05:15:53;17.83;;;9.60;;
70967;SDS011;58629;48.808;8.820;2024-03-23T05:18:19;17.98;;;9.27;;
70967;SDS011;58629;48.808;8.820;2024-03-23T05:20:45;17.35;;;9.20;;
70967;SDS011;58629;48.808;8.820;2024-03-23T05:23:10;19.10;;;9.80;;
70967;SDS011;58629;48.808;8.820;2024-03-23T05:25:36;17.93;;;9.23;;
70967;SDS011;58629;48.808;8.820;2024-03-23T05:28:01;17.10;;;8.77;;
70967;SDS011;58629;48.808;8.820;2024-03-23T05:30:27;17.75;;;9.02;;
70967;SDS011;58629;48.808;8.820;2024-03-23T05:32:52;18.97;;;9.50;;
70967;SDS011;58629;48.808;8.820;2024-03-23T05:35:17;19.00;;;9.30;;
70967;SDS011;58629;48.808;8.820;2024-03-23T05:37:43;16.80;;;8.10;;
70967;SDS011;58629;48.808;8.820;2024-03-23T05:40:09;13.60;;;6.63;;
70967;SDS011;58629;48.808;8.820;2024-03-23T05:42:35;11.60;;;5.30;;
70967;SDS011;58629;48.808;8.820;2024-03-23T05:45:01;7.97;;;4.07;;
70967;SDS011;58629;48.808;8.820;2024-03-23T05:47:26;5.70;;;3.20;;
70967;SDS011;58629;48.808;8.820;2024-03-23T05:49:51;5.93;;;2.97;;
70967;SDS011;58629;48.808;8.820;2024-03-23T05:52:17;5.20;;;2.80;;
70967;SDS011;58629;48.808;8.820;2024-03-23T05:54:42;4.40;;;2.42;;
70967;SDS011;58629;48.808;8.820;2024-03-23T05:57:08;6.22;;;2.47;;
70967;SDS011;58629;48.808;8.820;2024-03-23T05:59:34;5.90;;;2.60;;
70967;SDS011;58629;48.808;8.820;2024-03-23T06:02:00;4.35;;;1.88;;
70967;SDS011;58629;48.808;8.820;2024-03-23T06:04:25;3.93;;;2.10;;
70967;SDS011;58629;48.808;8.820;2024-03-23T06:06:53;3.33;;;1.40;;
70967;SDS011;58629;48.808;8.820;2024-03-23T06:09:18;2.50;;;1.05;;
70967;SDS011;58629;48.808;8.820;2024-03-23T06:11:48;2.08;;;1.10;;
70967;SDS011;58629;48.808;8.820;2024-03-23T06:14:13;1.92;;;1.00;;
70967;SDS011;58629;48.808;8.820;2024-03-23T06:16:39;1.80;;;0.80;;
70967;SDS011;58629;48.808;8.820;2024-03-23T06:19:04;3.20;;;0.90;;
70967;SDS011;58629;48.808;8.820;2024-03-23T06:21:31;1.83;;;0.80;;
70967;SDS011;58629;48.808;8.820;2024-03-23T06:23:57;0.90;;;0.40;;
70967;SDS011;58629;48.808;8.820;2024-03-23T06:26:23;0.60;;;0.38;;
70967;SDS011;58629;48.808;8.820;2024-03-23T06:28:48;0.67;;;0.30;;
70967;SDS011;58629;48.808;8.820;2024-03-23T06:31:14;0.80;;;0.30;;
70967;SDS011;58629;48.808;8.820;2024-03-23T06:33:39;0.47;;;0.17;;
70967;SDS011;58629;48.808;8.820;2024-03-23T06:36:10;0.40;;;0.30;;
70967;SDS011;58629;48.808;8.820;2024-03-23T06:38:36;0.70;;;0.40;;
70967;SDS011;58629;48.808;8.820;2024-03-23T06:41:03;0.50;;;0.35;;
70967;SDS011;58629;48.808;8.820;2024-03-23T06:43:28;0.73;;;0.43;;
70967;SDS011;58629;48.808;8.820;2024-03-23T06:45:54;0.50;;;0.30;;
70967;SDS011;58629;48.808;8.820;2024-03-23T06:48:20;0.70;;;0.40;;
70967;SDS011;58629;48.808;8.820;2024-03-23T06:50:45;0.75;;;0.22;;
70967;SDS011;58629;48.808;8.820;2024-03-23T06:53:11;0.83;;;0.30;;
70967;SDS011;58629;48.808;8.820;2024-03-23T06:55:40;0.70;;;0.20;;
70967;SDS011;58629;48.808;8.820;2024-03-23T06:58:06;0.30;;;0.20;;
70967;SDS011;58629;48.808;8.820;2024-03-23T07:00:31;0.30;;;0.10;;
70967;SDS011;58629;48.808;8.820;2024-03-23T07:02:57;0.50;;;0.20;;
70967;SDS011;58629;48.808;8.820;2024-03-23T07:05:24;0.40;;;0.10;;
70967;SDS011;58629;48.808;8.820;2024-03-23T07:07:49;0.80;;;0.30;;
70967;SDS011;58629;48.808;8.820;2024-03-23T07:10:14;0.50;;;0.30;;
70967;SDS011;58629;48.808;8.820;2024-03-23T07:12:40;0.28;;;0.20;;
70967;SDS011;58629;48.808;8.820;2024-03-23T07:15:06;1.77;;;0.90;;
70967;SDS011;58629;48.808;8.820;2024-03-23T07:17:31;0.75;;;0.40;;
70967;SDS011;58629;48.808;8.820;2024-03-23T07:19:58;0.40;;;0.20;;
70967;SDS011;58629;48.808;8.820;2024-03-23T07:22:23;0.40;;;0.30;;
70967;SDS011;58629;48.808;8.820;2024-03-23T07:24:49;0.60;;;0.40;;
70967;SDS011;58629;48.808;8.820;2024-03-23T07:27:14;1.90;;;1.00;;
70967;SDS011;58629;48.808;8.820;2024-03-23T07:29:39;0.93;;;0.40;;
70967;SDS011;58629;48.808;8.820;2024-03-23T07:32:05;0.95;;;0.30;;
70967;SDS011;58629;48.808;8.820;2024-03-23T07:34:30;0.73;;;0.50;;
70967;SDS011;58629;48.808;8.820;2024-03-23T07:36:56;0.73;;;0.40;;
70967;SDS011;58629;48.808;8.820;2024-03-23T07:39:21;1.07;;;0.70;;
70967;SDS011;58629;48.808;8.820;2024-03-23T07:41:46;1.13;;;0.30;;
70967;SDS011;58629;48.808;8.820;2024-03-23T07:44:12;0.50;;;0.40;;
70967;SDS011;58629;48.808;8.820;2024-03-23T07:46:37;0.50;;;0.30;;
70967;SDS011;58629;48.808;8.820;2024-03-23T07:49:04;1.17;;;0.40;;
70967;SDS011;58629;48.808;8.820;2024-03-23T07:51:29;0.40;;;0.20;;
70967;SDS011;58629;48.808;8.820;2024-03-23T07:53:55;0.57;;;0.30;;
70967;SDS011;58629;48.808;8.820;2024-03-23T07:56:20;0.97;;;0.40;;
70967;SDS011;58629;48.808;8.820;2024-03-23T07:58:46;0.60;;;0.50;;
70967;SDS011;58629;48.808;8.820;2024-03-23T08:01:13;0.80;;;0.40;;
70967;SDS011;58629;48.808;8.820;2024-03-23T08:03:41;1.27;;;0.47;;
70967;SDS011;58629;48.808;8.820;2024-03-23T08:08:40;1.35;;;0.70;;
70967;SDS011;58629;48.808;8.820;2024-03-23T08:11:06;1.70;;;0.70;;
70967;SDS011;58629;48.808;8.820;2024-03-23T08:13:33;0.80;;;0.50;;
70967;SDS011;58629;48.808;8.820;2024-03-23T08:15:59;1.10;;;0.70;;
70967;SDS011;58629;48.808;8.820;2024-03-23T08:18:25;1.02;;;0.70;;
70967;SDS011;58629;48.808;8.820;2024-03-23T08:20:57;1.20;;;0.90;;
70967;SDS011;58629;48.808;8.820;2024-03-23T08:23:29;1.75;;;0.90;;
70967;SDS011;58629;48.808;8.820;2024-03-23T08:26:03;1.42;;;0.88;;
70967;SDS011;58629;48.808;8.820;2024-03-23T08:28:29;1.20;;;0.90;;
70967;SDS011;58629;48.808;8.820;2024-03-23T08:30:55;1.53;;;0.80;;
70967;SDS011;58629;48.808;8.820;2024-03-23T08:33:21;1.58;;;0.90;;
70967;SDS011;58629;48.808;8.820;2024-03-23T08:36:00;2.40;;;0.93;;
70967;SDS011;58629;48.808;8.820;2024-03-23T08:38:28;1.40;;;0.90;;
70967;SDS011;58629;48.808;8.820;2024-03-23T08:40:57;2.42;;;1.30;;
70967;SDS011;58629;48.808;8.820;2024-03-23T08:43:23;1.63;;;1.00;;
70967;SDS011;58629;48.808;8.820;2024-03-23T08:45:48;2.30;;;1.00;;
70967;SDS011;58629;48.808;8.820;2024-03-23T08:48:14;3.37;;;1.30;;
70967;SDS011;58629;48.808;8.820;2024-03-23T08:50:39;2.20;;;1.50;;
70967;SDS011;58629;48.808;8.820;2024-03-23T08:53:05;3.10;;;1.38;;
70967;SDS011;58629;48.808;8.820;2024-03-23T08:55:30;2.53;;;1.35;;
70967;SDS011;58629;48.808;8.820;2024-03-23T08:57:55;3.50;;;1.63;;
70967;SDS011;58629;48.808;8.820;2024-03-23T09:00:21;4.53;;;2.00;;
70967;SDS011;58629;48.808;8.820;2024-03-23T09:02:50;4.33;;;1.90;;
70967;SDS011;58629;48.808;8.820;2024-03-23T09:05:15;4.97;;;2.20;;
70967;SDS011;58629;48.808;8.820;2024-03-23T09:07:40;5.23;;;2.03;;
70967;SDS011;58629;48.808;8.820;2024-03-23T09:10:06;4.27;;;2.17;;
70967;SDS011;58629;48.808;8.820;2024-03-23T09:12:32;7.25;;;2.38;;
70967;SDS011;58629;48.808;8.820;2024-03-23T09:14:58;6.07;;;2.10;;
70967;SDS011;58629;48.808;8.820;2024-03-23T09:17:23;6.57;;;2.30;;
70967;SDS011;58629;48.808;8.820;2024-03-23T09:19:49;5.63;;;2.40;;
70967;SDS011;58629;48.808;8.820;2024-03-23T09:22:14;5.00;;;2.40;;
70967;SDS011;58629;48.808;8.820;2024-03-23T09:24:39;7.80;;;2.80;;
70967;SDS011;58629;48.808;8.820;2024-03-23T09:27:05;7.00;;;2.60;;
70967;SDS011;58629;48.808;8.820;2024-03-23T09:29:31;6.00;;;2.43;;
70967;SDS011;58629;48.808;8.820;2024-03-23T09:31:56;5.83;;;2.40;;
70967;SDS011;58629;48.808;8.820;2024-03-23T09:34:21;6.03;;;2.63;;
70967;SDS011;58629;48.808;8.820;2024-03-23T09:36:47;6.23;;;2.77;;
70967;SDS011;58629;48.808;8.820;2024-03-23T09:39:16;7.57;;;2.90;;
70967;SDS011;58629;48.808;8.820;2024-03-23T09:41:42;6.68;;;2.60;;
70967;SDS011;58629;48.808;8.820;2024-03-23T09:44:07;6.00;;;2.40;;
70967;SDS011;58629;48.808;8.820;2024-03-23T09:46:33;6.77;;;2.63;;
70967;SDS011;58629;48.808;8.820;2024-03-23T09:48:59;7.43;;;2.63;;
70967;SDS011;58629;48.808;8.820;2024-03-23T09:51:25;7.25;;;2.50;;
70967;SDS011;58629;48.808;8.820;2024-03-23T09:53:50;6.73;;;2.50;;
70967;SDS011;58629;48.808;8.820;2024-03-23T09:56:17;5.13;;;2.40;;
70967;SDS011;58629;48.808;8.820;2024-03-23T09:58:42;7.17;;;2.50;;
70967;SDS011;58629;48.808;8.820;2024-03-23T10:01:08;7.03;;;2.80;;
70967;SDS011;58629;48.808;8.820;2024-03-23T10:03:42;6.05;;;2.35;;
70967;SDS011;58629;48.808;8.820;2024-03-23T10:06:08;4.85;;;2.00;;
70967;SDS011;58629;48.808;8.820;2024-03-23T10:08:33;7.27;;;2.80;;
70967;SDS011;58629;48.808;8.820;2024-03-23T10:11:12;5.55;;;2.20;;
70967;SDS011;58629;48.808;8.820;2024-03-23T10:13:38;5.72;;;2.45;;
70967;SDS011;58629;48.808;8.820;2024-03-23T10:16:07;6.17;;;2.60;;
70967;SDS011;58629;48.808;8.820;2024-03-23T10:18:32;7.45;;;2.65;;
70967;SDS011;58629;48.808;8.820;2024-03-23T10:23:30;5.47;;;2.70;;
70967;SDS011;58629;48.808;8.820;2024-03-23T10:26:12;7.82;;;2.72;;
70967;SDS011;58629;48.808;8.820;2024-03-23T10:28:50;7.45;;;2.75;;
70967;SDS011;58629;48.808;8.820;2024-03-23T10:31:18;7.70;;;2.70;;
70967;SDS011;58629;48.808;8.820;2024-03-23T10:33:45;5.40;;;2.67;;
70967;SDS011;58629;48.808;8.820;2024-03-23T10:36:11;6.50;;;2.53;;
70967;SDS011;58629;48.808;8.820;2024-03-23T10:38:39;5.03;;;1.92;;
70967;SDS011;58629;48.808;8.820;2024-03-23T10:41:05;5.47;;;1.95;;
70967;SDS011;58629;48.808;8.820;2024-03-23T10:43:32;5.20;;;1.90;;
70967;SDS011;58629;48.808;8.820;2024-03-23T10:45:58;3.47;;;1.50;;
70967;SDS011;58629;48.808;8.820;2024-03-23T10:48:23;3.10;;;1.60;;
70967;SDS011;58629;48.808;8.820;2024-03-23T10:50:49;5.67;;;2.20;;
70967;SDS011;58629;48.808;8.820;2024-03-23T10:53:14;4.07;;;1.87;;
70967;SDS011;58629;48.808;8.820;2024-03-23T10:55:42;4.95;;;1.92;;
70967;SDS011;58629;48.808;8.820;2024-03-23T10:58:09;5.43;;;2.10;;
70967;SDS011;58629;48.808;8.820;2024-03-23T11:00:37;7.33;;;2.17;;
70967;SDS011;58629;48.808;8.820;2024-03-23T11:03:46;4.15;;;1.80;;
70967;SDS011;58629;48.808;8.820;2024-03-23T11:06:00;5.32;;;1.77;;
70967;SDS011;58629;48.808;8.820;2024-03-23T11:08:32;5.72;;;1.60;;
70967;SDS011;58629;48.808;8.820;2024-03-23T11:13:50;2.78;;;1.38;;
70967;SDS011;58629;48.808;8.820;2024-03-23T11:16:17;4.38;;;1.58;;
70967;SDS011;58629;48.808;8.820;2024-03-23T11:18:48;2.42;;;1.00;;
70967;SDS011;58629;48.808;8.820;2024-03-23T11:24:17;2.38;;;0.90;;
70967;SDS011;58629;48.808;8.820;2024-03-23T11:26:43;4.40;;;1.00;;
70967;SDS011;58629;48.808;8.820;2024-03-23T11:29:13;1.60;;;0.63;;
70967;SDS011;58629;48.808;8.820;2024-03-23T11:31:48;1.67;;;0.75;;
70967;SDS011;58629;48.808;8.820;2024-03-23T11:34:15;2.78;;;0.82;;
70967;SDS011;58629;48.808;8.820;2024-03-23T11:36:42;3.43;;;0.70;;
70967;SDS011;58629;48.808;8.820;2024-03-23T11:39:14;2.45;;;0.60;;
70967;SDS011;58629;48.808;8.820;2024-03-23T11:41:50;2.45;;;0.80;;
70967;SDS011;58629;48.808;8.820;2024-03-23T11:44:17;2.92;;;0.65;;
70967;SDS011;58629;48.808;8.820;2024-03-23T11:46:52;4.43;;;0.85;;
70967;SDS011;58629;48.808;8.820;2024-03-23T11:49:24;3.27;;;1.00;;
70967;SDS011;58629;48.808;8.820;2024-03-23T11:51:52;3.10;;;0.80;;
70967;SDS011;58629;48.808;8.820;2024-03-23T11:54:22;3.22;;;0.80;;
70967;SDS011;58629;48.808;8.820;2024-03-23T11:56:58;5.60;;;1.13;;
70967;SDS011;58629;48.808;8.820;2024-03-23T11:59:30;3.43;;;1.00;;
70967;SDS011;58629;48.808;8.820;2024-03-23T12:02:12;3.85;;;0.95;;
70967;SDS011;58629;48.808;8.820;2024-03-23T12:04:41;3.67;;;0.95;;
70967;SDS011;58629;48.808;8.820;2024-03-23T12:07:14;3.97;;;1.50;;
70967;SDS011;58629;48.808;8.820;2024-03-23T12:09:41;6.22;;;1.63;;
70967;SDS011;58629;48.808;8.820;2024-03-23T12:14:33;5.15;;;1.65;;
70967;SDS011;58629;48.808;8.820;2024-03-23T12:17:08;6.03;;;1.90;;
70967;SDS011;58629;48.808;8.820;2024-03-23T12:19:38;5.70;;;1.60;;
70967;SDS011;58629;48.808;8.820;2024-03-23T12:22:04;5.47;;;1.88;;
70967;SDS011;58629;48.808;8.820;2024-03-23T12:24:30;5.97;;;1.88;;
70967;SDS011;58629;48.808;8.820;2024-03-23T12:27:02;5.00;;;1.90;;
70967;SDS011;58629;48.808;8.820;2024-03-23T12:29:30;4.70;;;1.80;;
70967;SDS011;58629;48.808;8.820;2024-03-23T12:32:01;4.53;;;1.60;;
70967;SDS011;58629;48.808;8.820;2024-03-23T12:34:27;4.10;;;1.55;;
70967;SDS011;58629;48.808;8.820;2024-03-23T12:36:55;4.78;;;1.70;;
70967;SDS011;58629;48.808;8.820;2024-03-23T12:39:20;5.20;;;1.80;;
70967;SDS011;58629;48.808;8.820;2024-03-23T12:41:46;4.85;;;2.20;;
70967;SDS011;58629;48.808;8.820;2024-03-23T12:44:12;4.38;;;1.67;;
70967;SDS011;58629;48.808;8.820;2024-03-23T12:46:38;5.82;;;1.90;;
70967;SDS011;58629;48.808;8.820;2024-03-23T12:49:04;6.17;;;1.70;;
70967;SDS011;58629;48.808;8.820;2024-03-23T12:51:30;3.80;;;1.13;;
70967;SDS011;58629;48.808;8.820;2024-03-23T12:53:55;4.90;;;1.50;;
70967;SDS011;58629;48.808;8.820;2024-03-23T12:56:20;5.77;;;1.43;;
70967;SDS011;58629;48.808;8.820;2024-03-23T12:58:46;5.07;;;1.50;;
70967;SDS011;58629;48.808;8.820;2024-03-23T13:01:16;5.40;;;1.60;;
70967;SDS011;58629;48.808;8.820;2024-03-23T13:03:41;3.80;;;1.23;;
70967;SDS011;58629;48.808;8.820;2024-03-23T13:06:07;5.05;;;1.40;;
70967;SDS011;58629;48.808;8.820;2024-03-23T13:08:33;4.23;;;1.17;;
70967;SDS011;58629;48.808;8.820;2024-03-23T13:10:59;2.90;;;1.42;;
70967;SDS011;58629;48.808;8.820;2024-03-23T13:13:24;4.63;;;1.30;;
70967;SDS011;58629;48.808;8.820;2024-03-23T13:15:50;3.40;;;1.07;;
70967;SDS011;58629;48.808;8.820;2024-03-23T13:18:15;5.68;;;1.55;;
70967;SDS011;58629;48.808;8.820;2024-03-23T13:20:41;6.00;;;1.40;;
70967;SDS011;58629;48.808;8.820;2024-03-23T13:23:06;3.57;;;1.37;;
70967;SDS011;58629;48.808;8.820;2024-03-23T13:25:31;3.50;;;1.33;;
70967;SDS011;58629;48.808;8.820;2024-03-23T13:27:58;3.83;;;1.30;;
70967;SDS011;58629;48.808;8.820;2024-03-23T13:30:23;5.37;;;1.40;;
70967;SDS011;58629;48.808;8.820;2024-03-23T13:32:48;6.73;;;1.40;;
70967;SDS011;58629;48.808;8.820;2024-03-23T13:35:14;4.27;;;1.30;;
70967;SDS011;58629;48.808;8.820;2024-03-23T13:37:39;5.50;;;1.27;;
70967;SDS011;58629;48.808;8.820;2024-03-23T13:40:05;3.53;;;1.47;;
70967;SDS011;58629;48.808;8.820;2024-03-23T13:42:31;5.32;;;1.27;;
70967;SDS011;58629;48.808;8.820;2024-03-23T13:44:57;3.80;;;1.27;;
70967;SDS011;58629;48.808;8.820;2024-03-23T13:47:22;4.90;;;1.33;;
70967;SDS011;58629;48.808;8.820;2024-03-23T13:49:47;6.70;;;1.60;;
70967;SDS011;58629;48.808;8.820;2024-03-23T13:52:14;3.45;;;1.55;;
70967;SDS011;58629;48.808;8.820;2024-03-23T13:54:39;5.15;;;1.70;;
70967;SDS011;58629;48.808;8.820;2024-03-23T13:57:10;4.72;;;1.20;;
70967;SDS011;58629;48.808;8.820;2024-03-23T13:59:35;3.42;;;1.20;;
70967;SDS011;58629;48.808;8.820;2024-03-23T14:02:01;3.67;;;0.90;;
70967;SDS011;58629;48.808;8.820;2024-03-23T14:04:26;3.50;;;0.90;;
70967;SDS011;58629;48.808;8.820;2024-03-23T14:06:52;4.18;;;1.20;;
70967;SDS011;58629;48.808;8.820;2024-03-23T14:09:17;4.17;;;0.90;;
70967;SDS011;58629;48.808;8.820;2024-03-23T14:11:50;3.57;;;1.10;;
70967;SDS011;58629;48.808;8.820;2024-03-23T14:14:16;4.60;;;1.15;;
70967;SDS011;58629;48.808;8.820;2024-03-23T14:16:42;3.77;;;1.10;;
70967;SDS011;58629;48.808;8.820;2024-03-23T14:19:08;3.35;;;1.10;;
70967;SDS011;58629;48.808;8.820;2024-03-23T14:21:33;2.25;;;0.85;;
70967;SDS011;58629;48.808;8.820;2024-03-23T14:24:01;2.60;;;0.68;;
70967;SDS011;58629;48.808;8.820;2024-03-23T14:26:27;3.65;;;0.80;;
70967;SDS011;58629;48.808;8.820;2024-03-23T14:28:53;2.80;;;0.90;;
70967;SDS011;58629;48.808;8.820;2024-03-23T14:31:18;2.13;;;0.70;;
70967;SDS011;58629;48.808;8.820;2024-03-23T14:33:44;3.63;;;0.70;;
70967;SDS011;58629;48.808;8.820;2024-03-23T14:36:13;4.18;;;0.65;;
70967;SDS011;58629;48.808;8.820;2024-03-23T14:38:38;3.90;;;0.80;;
70967;SDS011;58629;48.808;8.820;2024-03-23T14:41:04;2.00;;;0.50;;
70967;SDS011;58629;48.808;8.820;2024-03-23T14:43:29;1.97;;;0.60;;
70967;SDS011;58629;48.808;8.820;2024-03-23T14:48:36;3.25;;;0.60;;
70967;SDS011;58629;48.808;8.820;2024-03-23T14:51:02;1.40;;;0.57;;
70967;SDS011;58629;48.808;8.820;2024-03-23T14:53:32;1.48;;;0.50;;
70967;SDS011;58629;48.808;8.820;2024-03-23T14:55:58;2.38;;;0.80;;
70967;SDS011;58629;48.808;8.820;2024-03-23T14:58:27;1.88;;;0.50;;
70967;SDS011;58629;48.808;8.820;2024-03-23T15:00:59;1.75;;;0.40;;
70967;SDS011;58629;48.808;8.820;2024-03-23T15:03:26;1.37;;;0.37;;
70967;SDS011;58629;48.808;8.820;2024-03-23T15:05:52;2.03;;;0.20;;
70967;SDS011;58629;48.808;8.820;2024-03-23T15:08:21;2.03;;;0.57;;
70967;SDS011;58629;48.808;8.820;2024-03-23T15:10:47;2.28;;;0.40;;
70967;SDS011;58629;48.808;8.820;2024-03-23T15:13:12;1.40;;;0.50;;
70967;SDS011;58629;48.808;8.820;2024-03-23T15:15:39;1.88;;;0.60;;
70967;SDS011;58629;48.808;8.820;2024-03-23T15:18:06;1.13;;;0.52;;
70967;SDS011;58629;48.808;8.820;2024-03-23T15:20:31;1.63;;;0.50;;
70967;SDS011;58629;48.808;8.820;2024-03-23T15:23:00;1.90;;;0.40;;
70967;SDS011;58629;48.808;8.820;2024-03-23T15:25:26;1.17;;;0.50;;
70967;SDS011;58629;48.808;8.820;2024-03-23T15:27:52;0.60;;;0.30;;
70967;SDS011;58629;48.808;8.820;2024-03-23T15:30:18;2.05;;;0.50;;
70967;SDS011;58629;48.808;8.820;2024-03-23T15:32:43;1.70;;;0.60;;
70967;SDS011;58629;48.808;8.820;2024-03-23T15:35:09;1.73;;;0.40;;
70967;SDS011;58629;48.808;8.820;2024-03-23T15:37:34;2.57;;;0.70;;
70967;SDS011;58629;48.808;8.820;2024-03-23T15:39:59;3.60;;;0.57;;
70967;SDS011;58629;48.808;8.820;2024-03-23T15:42:25;2.25;;;0.40;;
70967;SDS011;58629;48.808;8.820;2024-03-23T15:44:50;1.95;;;0.50;;
70967;SDS011;58629;48.808;8.820;2024-03-23T15:47:15;1.47;;;0.30;;
70967;SDS011;58629;48.808;8.820;2024-03-23T15:49:41;0.70;;;0.40;;
70967;SDS011;58629;48.808;8.820;2024-03-23T15:52:07;1.00;;;0.40;;